Whitehorse, Yukon Territory

12:28 PM PDT on October 31, 2014 (GMT -0700)
Whitehorse International | Change Station
CLOSE
Current Station
Airport
Location: Whitehorse,
Elevation: 2316 ft
Nearby Weather Stations

Elev 2316 ft 60.71 °N, 135.07 °W | Updated 28 minutes ago

Mostly Cloudy
Mostly Cloudy
32 °F
Feels Like 22 °F
N
15
Wind Variable Wind from SSE

Today is forecast to be nearly the same temperature as yesterday.

Today
High -- | Low -- °F
--% Chance of Precip.
Yesterday
High -- | Low -- °F
Precip. -- in
9:23 AM 6:03 PM
First Quarter, 58% visible
Pressure 29.41 in
Visibility 40.0 miles
Clouds Mostly Cloudy 6400 ft
Mostly Cloudy 14000 ft
Windchill 22 °F
Dew Point 27 °F
Humidity 80%
Rainfall 0.00 in
Snow Depth Not available.
UV 0 out of 12
Pollen Not available.
Air Quality Not available.
Flu Activity Not available.
METAR CYXY 311900Z 16013KT 40SM BKN064 BKN140 M00/M03 A2930 RMK SC5AC2 SLP958

More Conditions Fewer Conditions

Pressure 29.41 in
Visibility 40.0 miles
Clouds Mostly Cloudy 6400 ft
Mostly Cloudy 14000 ft
Windchill 22 °F
Dew Point 27 °F
Humidity 80%
Rainfall 0.00 in
Snow Depth Not available.
UV 0 out of 12
Pollen Not available.
Air Quality Not available.
Flu Activity Not available.
METAR CYXY 311900Z 16013KT 40SM BKN064 BKN140 M00/M03 A2930 RMK SC5AC2 SLP958

More Conditions Fewer Conditions

10-Day Weather Forecast

Almanac

Astronomy

Oct. 31, 2014 Rise Set
Actual Time
Civil Twilight
Nautical Twilight
Astronomical Twilight
Moon
Length of Visible Light
Length of Day
Tomorrow will be .
, % of the Moon is Illuminated

Today's Extremes

Country Highs Country Lows

Community

WunderPhotos

Upload Photos

1,766,699 photos uploaded!

WunderBlogs® & News

Nearby

Air Quality

  Air Quality AQ Index Pollutant
Not available.

Snow Depth

Station Depth Elevation

Earthquake Activity

City Distance Mag. Time & Date
Minimum magnitude displayed is 2.5.

Coastal Water Temperatures

Place Temperature

Nearby Weather Stations